Time;durP1;ratioP1;P1;durP2;ratioP2;P2;SDS_P1;SDS_P2;PMS_P1;PMS_P2;Temp;Humidity;BMP_temperature;BMP_pressure;BME280_temperature;BME280_humidity;BME280_pressure;Samples;Min_cycle;Max_cycle;Signal;HPM_P1;HPM_P2
2023/03/13 00:01:41;;;;;;;16.77;3.03;;;9.80;99.90;;;;;;5093660;28;20217;-61
2023/03/13 00:04:08;;;;;;;7.33;2.80;;;9.70;99.90;;;;;;5096268;28;20969;-61
2023/03/13 00:06:36;;;;;;;8.80;3.20;;;9.70;99.90;;;;;;5079456;28;20226;-61
2023/03/13 00:09:05;;;;;;;14.93;3.20;;;9.70;99.90;;;;;;5077198;28;20210;-60
2023/03/13 00:11:32;;;;;;;13.03;3.27;;;9.70;99.90;;;;;;5095937;28;20215;-61
2023/03/13 00:14:02;;;;;;;13.17;3.20;;;9.70;99.90;;;;;;5093028;28;20213;-61
2023/03/13 00:16:30;;;;;;;15.70;3.43;;;9.70;99.90;;;;;;5097133;28;20259;-60
2023/03/13 00:18:57;;;;;;;10.80;2.67;;;9.60;99.90;;;;;;5077745;28;20240;-60
2023/03/13 00:21:26;;;;;;;11.17;2.50;;;9.60;99.90;;;;;;5095198;28;20228;-60
2023/03/13 00:23:54;;;;;;;11.33;3.37;;;9.60;99.90;;;;;;5076034;28;20203;-61
2023/03/13 00:26:23;;;;;;;15.20;3.67;;;9.60;99.90;;;;;;5097038;28;20238;-61
2023/03/13 00:28:51;;;;;;;15.27;3.13;;;9.60;99.90;;;;;;5096098;28;20196;-61
2023/03/13 00:31:38;;;;;;;12.87;3.87;;;9.50;99.90;;;;;;5081240;28;20255;-61
2023/03/13 00:34:05;;;;;;;13.80;3.27;;;9.50;99.90;;;;;;5097845;28;20235;-60
2023/03/13 00:36:34;;;;;;;14.80;2.73;;;9.50;99.90;;;;;;5095801;28;20731;-60
2023/03/13 00:39:04;;;;;;;12.00;3.03;;;9.50;99.90;;;;;;5095263;28;20205;-61
2023/03/13 00:41:32;;;;;;;12.53;2.83;;;9.50;99.90;;;;;;5082237;28;20690;-61
2023/03/13 00:43:59;;;;;;;13.27;3.67;;;9.50;99.90;;;;;;5097573;28;20543;-61
2023/03/13 00:46:28;;;;;;;11.03;2.97;;;9.50;99.90;;;;;;5096855;28;20249;-61
2023/03/13 00:48:56;;;;;;;15.00;3.03;;;9.50;99.90;;;;;;5098853;28;20238;-60
2023/03/13 00:51:25;;;;;;;8.90;3.00;;;9.50;99.90;;;;;;5095898;28;20292;-60
2023/03/13 00:53:59;;;;;;;16.97;3.63;;;9.50;99.90;;;;;;5093486;28;20233;-60
2023/03/13 00:56:26;;;;;;;15.23;3.27;;;9.50;99.90;;;;;;5096070;28;20315;-60
2023/03/13 00:58:53;;;;;;;14.07;3.97;;;9.50;99.90;;;;;;5092580;28;20302;-60
2023/03/13 01:01:22;;;;;;;14.30;3.00;;;9.50;99.90;;;;;;5090682;28;20243;-60
2023/03/13 01:03:53;;;;;;;11.37;2.63;;;9.50;99.90;;;;;;5094791;28;20195;-60
2023/03/13 01:06:23;;;;;;;13.63;2.63;;;9.50;99.90;;;;;;5090635;28;20648;-60
2023/03/13 01:08:50;;;;;;;11.57;2.80;;;9.50;99.90;;;;;;5092216;28;20663;-61
2023/03/13 01:11:21;;;;;;;11.57;2.80;;;9.50;99.90;;;;;;5092415;28;20244;-61
2023/03/13 01:13:48;;;;;;;10.53;3.00;;;9.60;99.90;;;;;;5092336;28;20258;-60
2023/03/13 01:16:17;;;;;;;8.70;2.40;;;9.60;99.90;;;;;;5095239;28;20593;-60
2023/03/13 01:18:50;;;;;;;11.37;2.80;;;9.60;99.90;;;;;;5089196;28;20355;-61
2023/03/13 01:21:19;;;;;;;10.20;2.83;;;9.60;99.90;;;;;;5097285;28;20657;-60
2023/03/13 01:23:47;;;;;;;6.40;2.30;;;9.70;99.90;;;;;;5097156;28;20204;-60
2023/03/13 01:26:14;;;;;;;8.37;2.60;;;9.70;99.90;;;;;;5095475;28;20290;-60
2023/03/13 01:28:41;;;;;;;4.30;2.03;;;9.80;99.90;;;;;;5092920;28;20289;-61
2023/03/13 01:31:17;;;;;;;7.63;2.47;;;9.80;99.90;;;;;;5094872;28;20847;-61
2023/03/13 01:33:46;;;;;;;5.63;2.47;;;9.80;99.90;;;;;;5097559;28;20261;-61
2023/03/13 01:36:13;;;;;;;7.60;2.30;;;9.80;99.90;;;;;;5097458;28;20204;-61
2023/03/13 01:38:40;;;;;;;12.83;2.60;;;9.90;99.90;;;;;;5095599;28;20198;-61
2023/03/13 01:41:10;;;;;;;8.23;2.67;;;9.90;99.90;;;;;;5081611;28;20217;-60
2023/03/13 01:43:37;;;;;;;8.13;2.30;;;9.90;99.90;;;;;;5097388;28;20622;-61
2023/03/13 01:46:09;;;;;;;7.60;2.10;;;10.00;99.90;;;;;;5096838;28;20292;-60
2023/03/13 01:48:45;;;;;;;6.40;2.57;;;10.00;99.90;;;;;;5097733;28;20211;-61
2023/03/13 01:51:25;;;;;;;8.30;2.33;;;10.10;99.90;;;;;;5097999;28;21101;-61
2023/03/13 01:54:10;;;;;;;13.57;3.43;;;10.10;99.90;;;;;;5095959;28;20279;-61
2023/03/13 01:56:40;;;;;;;7.13;2.20;;;10.20;99.90;;;;;;5097545;28;20693;-60
2023/03/13 01:59:10;;;;;;;8.23;2.90;;;10.20;99.90;;;;;;5097840;28;20194;-61
2023/03/13 02:01:37;;;;;;;6.93;2.23;;;10.20;99.90;;;;;;5098374;28;20633;-60
2023/03/13 02:04:05;;;;;;;8.40;2.70;;;10.30;99.90;;;;;;5094676;28;20248;-61
2023/03/13 02:06:35;;;;;;;7.90;2.43;;;10.30;99.90;;;;;;5086913;28;20639;-60
2023/03/13 02:09:07;;;;;;;9.60;2.60;;;10.40;99.90;;;;;;5075880;28;20248;-60
2023/03/13 02:11:46;;;;;;;8.93;3.00;;;10.40;99.90;;;;;;5078261;28;20205;-60
2023/03/13 02:14:17;;;;;;;9.07;2.53;;;10.50;99.90;;;;;;5094290;28;20228;-61
2023/03/13 02:16:50;;;;;;;6.83;2.77;;;10.50;99.90;;;;;;5087212;28;20200;-60
2023/03/13 02:19:43;;;;;;;9.33;2.87;;;10.60;99.90;;;;;;5083197;28;20696;-60
2023/03/13 02:22:12;;;;;;;9.23;2.93;;;10.60;99.90;;;;;;5099774;28;20313;-60
2023/03/13 02:24:51;;;;;;;10.20;3.00;;;10.70;99.90;;;;;;5079860;28;20275;-60
2023/03/13 02:27:18;;;;;;;10.70;3.07;;;10.70;99.90;;;;;;5098513;28;20469;-60
2023/03/13 02:29:46;;;;;;;7.07;2.43;;;10.80;99.90;;;;;;5098951;28;20285;-60
2023/03/13 02:32:13;;;;;;;6.40;3.37;;;10.90;99.90;;;;;;5098927;28;20199;-60
2023/03/13 02:34:43;;;;;;;6.80;3.20;;;10.90;99.90;;;;;;5099410;28;20234;-60
2023/03/13 02:37:11;;;;;;;7.67;3.17;;;10.90;99.90;;;;;;5082726;28;20235;-61
2023/03/13 02:39:44;;;;;;;6.77;3.30;;;10.90;99.90;;;;;;5098924;28;20289;-60
2023/03/13 02:42:14;;;;;;;8.00;3.50;;;11.00;99.90;;;;;;5079945;28;20309;-60
2023/03/13 02:44:43;;;;;;;10.03;3.97;;;11.00;99.90;;;;;;5095189;28;20207;-61
2023/03/13 02:47:10;;;;;;;10.13;3.70;;;11.00;99.90;;;;;;5099470;28;20335;-61
2023/03/13 02:49:37;;;;;;;9.97;3.50;;;11.00;99.90;;;;;;5101272;28;20325;-63
2023/03/13 02:52:26;;;;;;;8.37;3.40;;;11.10;99.90;;;;;;5101787;27;20219;-60
2023/03/13 02:55:03;;;;;;;7.60;3.47;;;11.10;99.90;;;;;;5092241;28;20279;-61
2023/03/13 02:57:30;;;;;;;5.00;3.73;;;11.20;99.90;;;;;;5098523;28;20204;-61
2023/03/13 02:59:57;;;;;;;7.37;4.17;;;11.20;99.90;;;;;;5100781;28;20204;-61
2023/03/13 03:02:24;;;;;;;7.30;4.00;;;11.30;99.90;;;;;;5100593;28;20224;-60
2023/03/13 03:04:51;;;;;;;14.80;4.50;;;11.30;99.90;;;;;;5098110;28;20203;-60
2023/03/13 03:07:18;;;;;;;8.27;4.10;;;11.40;99.90;;;;;;5100360;28;20624;-61
2023/03/13 03:09:44;;;;;;;7.47;4.10;;;11.30;99.90;;;;;;5096640;28;20295;-60
2023/03/13 03:12:11;;;;;;;9.50;4.70;;;11.40;99.90;;;;;;5097586;28;20312;-60
2023/03/13 03:14:38;;;;;;;8.67;4.63;;;11.40;99.90;;;;;;5096228;28;20241;-60
2023/03/13 03:17:05;;;;;;;8.50;5.10;;;11.50;99.90;;;;;;5099387;28;20205;-60
2023/03/13 03:19:32;;;;;;;8.33;4.80;;;11.40;99.90;;;;;;5101840;28;20205;-61
2023/03/13 03:21:59;;;;;;;8.63;5.50;;;11.40;99.90;;;;;;5081959;28;20225;-60
2023/03/13 03:24:26;;;;;;;7.10;4.63;;;11.50;99.90;;;;;;5098255;28;20304;-60
2023/03/13 03:26:53;;;;;;;6.63;4.90;;;11.60;99.90;;;;;;5099104;28;20199;-60
2023/03/13 03:29:20;;;;;;;8.07;5.03;;;11.60;99.90;;;;;;5077189;28;20584;-60
2023/03/13 03:31:47;;;;;;;7.67;5.60;;;11.60;99.90;;;;;;5096903;28;20291;-60
2023/03/13 03:34:14;;;;;;;7.23;5.50;;;11.60;99.90;;;;;;5093452;28;20238;-61
2023/03/13 03:36:41;;;;;;;7.97;5.20;;;11.60;99.90;;;;;;5096383;28;20667;-60
2023/03/13 03:39:08;;;;;;;9.73;4.77;;;11.60;99.90;;;;;;5092935;28;20298;-61
2023/03/13 03:41:36;;;;;;;8.17;6.03;;;11.60;99.90;;;;;;5076890;28;20898;-60
2023/03/13 03:44:03;;;;;;;6.33;4.80;;;11.60;99.90;;;;;;5095889;28;20316;-60
2023/03/13 03:46:30;;;;;;;6.53;4.93;;;11.60;99.90;;;;;;5095640;28;21004;-60
2023/03/13 03:48:57;;;;;;;8.80;4.97;;;11.70;99.90;;;;;;5095397;28;20292;-60
2023/03/13 03:51:24;;;;;;;5.97;5.10;;;11.70;99.90;;;;;;5076574;28;20237;-60
2023/03/13 03:53:51;;;;;;;7.63;5.33;;;11.70;99.90;;;;;;5095649;28;20235;-60
2023/03/13 03:56:18;;;;;;;13.43;5.37;;;11.70;99.90;;;;;;5090787;28;20277;-61
2023/03/13 03:58:45;;;;;;;6.10;5.00;;;11.70;99.90;;;;;;5093817;28;20212;-60
2023/03/13 04:01:11;;;;;;;10.20;4.93;;;11.80;99.90;;;;;;5079900;28;20289;-61
2023/03/13 04:03:38;;;;;;;8.13;4.70;;;11.80;99.90;;;;;;5094717;28;20286;-60
2023/03/13 04:06:09;;;;;;;11.20;4.57;;;11.80;99.90;;;;;;5095419;28;20205;-60
2023/03/13 04:08:36;;;;;;;7.67;5.10;;;11.90;99.90;;;;;;5061341;28;20238;-61
2023/03/13 04:11:02;;;;;;;12.37;5.00;;;11.90;99.90;;;;;;5091411;28;20233;-61
2023/03/13 04:13:29;;;;;;;6.07;4.00;;;11.90;99.90;;;;;;5094736;28;20245;-60
2023/03/13 04:15:56;;;;;;;5.87;4.00;;;11.90;99.90;;;;;;5094927;28;20201;-61
2023/03/13 04:18:23;;;;;;;9.03;4.77;;;11.90;99.90;;;;;;5097818;28;20236;-60
2023/03/13 04:20:50;;;;;;;7.07;4.23;;;11.90;99.90;;;;;;5078772;28;20199;-61
2023/03/13 04:23:16;;;;;;;4.70;4.10;;;12.00;99.90;;;;;;5093614;28;20209;-60
2023/03/13 04:25:43;;;;;;;6.50;4.13;;;12.10;99.90;;;;;;5092858;28;20203;-63
2023/03/13 04:28:10;;;;;;;6.60;4.07;;;12.10;99.90;;;;;;5093707;28;20217;-61
2023/03/13 04:30:37;;;;;;;6.20;4.07;;;12.10;99.90;;;;;;5094866;28;20618;-61
2023/03/13 04:33:04;;;;;;;7.30;4.57;;;12.10;99.90;;;;;;5091992;28;20217;-65
2023/03/13 04:35:31;;;;;;;6.83;4.00;;;12.10;99.90;;;;;;5054712;28;20207;-60
2023/03/13 04:37:59;;;;;;;9.20;4.50;;;12.20;99.90;;;;;;5073692;28;20660;-61
2023/03/13 04:40:27;;;;;;;4.50;3.50;;;12.20;99.90;;;;;;5053465;28;20304;-60
2023/03/13 04:42:53;;;;;;;6.90;3.97;;;12.30;99.90;;;;;;5073042;28;20272;-60
2023/03/13 04:45:20;;;;;;;6.73;4.07;;;12.30;99.90;;;;;;5067732;28;20603;-65
2023/03/13 04:47:47;;;;;;;9.40;3.97;;;12.30;99.90;;;;;;5073676;28;20654;-60
2023/03/13 04:50:15;;;;;;;5.73;3.90;;;12.40;99.90;;;;;;5073268;28;20206;-60
2023/03/13 04:52:41;;;;;;;6.10;4.63;;;12.40;99.90;;;;;;5073294;28;20674;-60
2023/03/13 04:55:08;;;;;;;7.93;3.83;;;12.40;99.90;;;;;;5053082;28;20268;-61
2023/03/13 04:57:35;;;;;;;4.37;3.30;;;12.40;99.90;;;;;;5056103;28;20211;-61
2023/03/13 05:00:06;;;;;;;7.70;3.23;;;12.50;99.90;;;;;;5069475;28;20238;-61
2023/03/13 05:02:33;;;;;;;5.43;3.23;;;12.50;99.90;;;;;;5074061;28;20221;-60
2023/03/13 05:05:00;;;;;;;3.83;2.93;;;12.50;99.90;;;;;;5069230;28;20305;-61
2023/03/13 05:07:27;;;;;;;4.60;3.20;;;12.50;99.90;;;;;;5075546;28;20194;-61
2023/03/13 05:09:54;;;;;;;5.23;2.90;;;12.50;99.90;;;;;;5074190;28;20281;-60
2023/03/13 05:12:21;;;;;;;7.47;3.33;;;12.60;99.90;;;;;;5076466;28;20203;-60
2023/03/13 05:14:49;;;;;;;6.13;3.37;;;12.60;99.90;;;;;;5073502;28;20243;-60
2023/03/13 05:17:16;;;;;;;5.27;3.03;;;12.70;99.90;;;;;;5077619;28;20200;-60
2023/03/13 05:19:43;;;;;;;3.63;2.73;;;12.70;99.90;;;;;;5081254;28;20613;-60
2023/03/13 05:22:10;;;;;;;4.73;3.10;;;12.80;99.90;;;;;;5080389;28;20255;-60
2023/03/13 05:24:37;;;;;;;5.70;2.90;;;12.80;99.90;;;;;;5062367;28;20249;-61
2023/03/13 05:27:07;;;;;;;6.87;2.80;;;12.80;99.90;;;;;;5079255;28;20247;-61
2023/03/13 05:29:34;;;;;;;4.13;2.93;;;12.90;99.90;;;;;;5073976;28;20561;-61
2023/03/13 05:32:01;;;;;;;4.67;2.57;;;12.80;99.90;;;;;;5066307;28;20214;-61
2023/03/13 05:34:28;;;;;;;4.23;3.00;;;12.90;99.90;;;;;;5071666;28;20232;-61
2023/03/13 05:36:55;;;;;;;6.33;2.60;;;12.90;99.90;;;;;;5077009;28;20666;-61
2023/03/13 05:39:21;;;;;;;4.97;2.33;;;13.00;99.90;;;;;;5057458;28;20606;-61
2023/03/13 05:41:48;;;;;;;3.93;2.77;;;12.90;99.90;;;;;;5075613;28;20332;-61
2023/03/13 05:44:15;;;;;;;5.77;2.50;;;12.90;99.90;;;;;;5074445;28;20286;-61
2023/03/13 05:46:42;;;;;;;4.40;2.20;;;12.90;99.90;;;;;;5074040;28;20198;-61
2023/03/13 05:49:09;;;;;;;4.10;2.33;;;13.00;99.90;;;;;;5074924;28;20203;-61
2023/03/13 05:51:36;;;;;;;3.90;2.10;;;13.00;99.90;;;;;;5073908;28;20201;-61
2023/03/13 05:54:03;;;;;;;3.73;2.60;;;13.00;99.90;;;;;;5061774;28;20207;-60
2023/03/13 05:56:30;;;;;;;5.20;2.37;;;13.00;99.90;;;;;;5073804;28;20713;-61
2023/03/13 05:58:56;;;;;;;4.37;1.97;;;13.00;99.90;;;;;;5055333;28;20207;-61
2023/03/13 06:01:23;;;;;;;7.23;2.67;;;13.00;99.90;;;;;;5073724;28;20240;-61
2023/03/13 06:03:50;;;;;;;5.07;2.20;;;13.00;99.90;;;;;;5074504;28;20628;-61
2023/03/13 06:06:17;;;;;;;2.97;2.57;;;13.00;99.90;;;;;;5069544;28;20242;-61
2023/03/13 06:08:44;;;;;;;5.67;2.27;;;13.00;99.90;;;;;;5075292;28;20213;-61
2023/03/13 06:11:11;;;;;;;3.00;2.03;;;13.00;99.90;;;;;;5073088;28;20294;-61
2023/03/13 06:13:38;;;;;;;7.13;2.20;;;13.00;99.90;;;;;;5075132;28;20233;-61
2023/03/13 06:16:05;;;;;;;6.20;2.57;;;13.10;99.90;;;;;;5071081;28;20289;-61
2023/03/13 06:18:32;;;;;;;6.23;2.20;;;13.00;99.90;;;;;;5073818;28;20669;-61
2023/03/13 06:21:00;;;;;;;4.90;2.37;;;13.10;99.90;;;;;;5076506;28;20241;-65
2023/03/13 06:23:27;;;;;;;6.27;2.27;;;13.10;99.90;;;;;;5059588;28;20332;-61
2023/03/13 06:25:54;;;;;;;4.23;2.03;;;13.20;99.90;;;;;;5079299;28;20210;-62
2023/03/13 06:28:22;;;;;;;6.60;2.10;;;13.20;99.90;;;;;;5078102;28;20198;-61
2023/03/13 06:30:49;;;;;;;3.77;1.90;;;13.10;99.90;;;;;;5078184;28;20206;-61
2023/03/13 06:33:16;;;;;;;4.63;2.13;;;13.10;99.90;;;;;;5081839;28;20245;-61
2023/03/13 06:35:43;;;;;;;4.90;2.10;;;13.20;99.90;;;;;;5079572;28;20224;-61
2023/03/13 06:38:23;;;;;;;5.37;2.40;;;13.10;99.90;;;;;;5078056;28;20206;-61
2023/03/13 06:40:50;;;;;;;8.27;2.00;;;13.20;99.90;;;;;;5062092;28;20207;-61
2023/03/13 06:43:17;;;;;;;5.77;2.00;;;13.30;99.90;;;;;;5079615;28;20532;-60
2023/03/13 06:45:44;;;;;;;5.77;2.20;;;13.30;99.90;;;;;;5073838;28;20194;-61
2023/03/13 06:48:11;;;;;;;6.00;2.37;;;13.30;99.90;;;;;;5076826;28;20286;-65
2023/03/13 06:50:39;;;;;;;6.33;2.17;;;13.30;99.90;;;;;;5071689;28;20210;-61
2023/03/13 06:53:06;;;;;;;4.40;1.90;;;13.30;99.90;;;;;;5073652;28;20213;-61
2023/03/13 06:55:33;;;;;;;6.53;2.27;;;13.30;99.90;;;;;;5073246;28;20689;-61
2023/03/13 06:58:00;;;;;;;3.07;1.83;;;13.30;99.90;;;;;;5073515;28;20198;-61
2023/03/13 07:00:27;;;;;;;3.33;2.67;;;13.30;99.90;;;;;;5062772;28;20333;-60
2023/03/13 07:02:54;;;;;;;4.90;2.60;;;13.30;99.90;;;;;;4711771;28;9999854;-60
2023/03/13 07:05:21;;;;;;;5.07;2.20;;;13.30;99.90;;;;;;5056004;28;20356;-60
2023/03/13 07:07:47;;;;;;;3.67;1.80;;;13.30;99.90;;;;;;5071049;28;20196;-60
2023/03/13 07:10:14;;;;;;;5.57;2.00;;;13.20;99.90;;;;;;5073234;28;20281;-60
2023/03/13 07:12:42;;;;;;;5.87;2.30;;;13.30;99.90;;;;;;5059967;28;20294;-62
2023/03/13 07:15:10;;;;;;;7.33;2.07;;;13.40;99.90;;;;;;5078551;27;20293;-60
2023/03/13 07:17:36;;;;;;;5.53;2.43;;;13.30;99.90;;;;;;5074973;28;20222;-61
2023/03/13 07:20:05;;;;;;;4.03;2.13;;;13.40;99.90;;;;;;5065370;28;20222;-59
2023/03/13 07:22:32;;;;;;;3.53;1.67;;;13.40;99.90;;;;;;5074543;28;20224;-59
2023/03/13 07:24:59;;;;;;;6.63;1.93;;;13.40;99.90;;;;;;5076355;28;20219;-60
2023/03/13 07:27:26;;;;;;;4.00;2.00;;;13.30;99.90;;;;;;5074808;28;20641;-60
2023/03/13 07:29:52;;;;;;;6.43;2.17;;;13.30;99.90;;;;;;5074480;28;21521;-61
2023/03/13 07:32:19;;;;;;;7.57;2.07;;;13.30;99.90;;;;;;5062577;28;20808;-60
2023/03/13 07:34:46;;;;;;;3.73;2.17;;;13.30;99.90;;;;;;5070635;28;20245;-62
2023/03/13 07:37:14;;;;;;;5.60;1.80;;;13.30;99.90;;;;;;5073804;28;20919;-60
2023/03/13 07:39:42;;;;;;;4.03;1.40;;;13.30;99.90;;;;;;5075225;28;20245;-60
2023/03/13 07:42:10;;;;;;;6.93;1.83;;;13.30;99.90;;;;;;5074807;28;20215;-60
2023/03/13 07:44:37;;;;;;;4.50;2.10;;;13.30;99.90;;;;;;5069071;28;20233;-60
2023/03/13 07:47:05;;;;;;;5.63;2.57;;;13.30;99.90;;;;;;5070872;28;20329;-60
2023/03/13 07:49:32;;;;;;;3.40;1.93;;;13.30;99.90;;;;;;5072157;28;20195;-60
2023/03/13 07:51:59;;;;;;;7.23;1.83;;;13.30;99.90;;;;;;5059954;28;20199;-60
2023/03/13 07:54:26;;;;;;;4.13;1.93;;;13.30;99.90;;;;;;5075491;28;20665;-60
2023/03/13 07:56:53;;;;;;;7.43;1.93;;;13.30;99.90;;;;;;5076587;28;20546;-60
2023/03/13 07:59:20;;;;;;;4.20;2.47;;;13.20;99.90;;;;;;5075408;28;20626;-60
2023/03/13 08:01:47;;;;;;;4.23;1.73;;;13.20;99.90;;;;;;5078647;28;20198;-60
2023/03/13 08:04:14;;;;;;;6.57;2.20;;;13.20;99.90;;;;;;5063370;28;20245;-60
2023/03/13 08:06:41;;;;;;;3.80;1.83;;;13.20;99.90;;;;;;5069977;28;20288;-60
2023/03/13 08:09:08;;;;;;;5.73;2.30;;;13.20;99.90;;;;;;5070283;28;20222;-60
2023/03/13 08:11:40;;;;;;;6.60;2.10;;;13.20;99.90;;;;;;5071755;28;20369;-60
2023/03/13 08:14:07;;;;;;;8.17;2.47;;;13.20;99.90;;;;;;5070741;28;20285;-60
2023/03/13 08:16:35;;;;;;;5.20;2.27;;;13.20;99.90;;;;;;5068179;28;20215;-60
2023/03/13 08:19:06;;;;;;;4.20;1.93;;;13.20;99.90;;;;;;5055384;28;20243;-57
2023/03/13 08:21:35;;;;;;;4.57;2.23;;;13.10;99.90;;;;;;5074426;28;20300;-57
2023/03/13 08:24:07;;;;;;;5.60;2.40;;;13.20;99.90;;;;;;5055726;28;20291;-57
2023/03/13 08:26:36;;;;;;;5.40;2.53;;;13.20;99.90;;;;;;5069541;28;20214;-57
2023/03/13 08:29:06;;;;;;;4.90;2.00;;;13.20;99.90;;;;;;5073616;28;20203;-58
2023/03/13 08:31:36;;;;;;;4.87;2.57;;;13.20;99.90;;;;;;5067061;28;20733;-57
2023/03/13 08:34:03;;;;;;;9.00;2.83;;;13.20;99.90;;;;;;5068909;28;20249;-57
2023/03/13 08:36:37;;;;;;;3.97;2.00;;;13.20;99.90;;;;;;5055370;28;20970;-59
2023/03/13 08:39:08;;;;;;;4.30;2.20;;;13.30;99.90;;;;;;5070041;28;20256;-58
2023/03/13 08:41:36;;;;;;;4.20;1.90;;;13.40;99.90;;;;;;5072104;28;20688;-58
2023/03/13 08:44:04;;;;;;;4.53;2.00;;;13.40;99.90;;;;;;5076635;28;20222;-57
2023/03/13 08:46:33;;;;;;;5.97;2.20;;;13.30;99.90;;;;;;5074731;28;20268;-57
2023/03/13 08:49:00;;;;;;;4.37;2.20;;;13.20;99.90;;;;;;5075614;28;20195;-57
2023/03/13 08:51:28;;;;;;;6.20;2.30;;;13.20;99.90;;;;;;5058090;28;20231;-58
2023/03/13 08:53:55;;;;;;;7.17;2.53;;;13.20;99.90;;;;;;5075019;28;20203;-57
2023/03/13 08:56:27;;;;;;;9.13;2.13;;;13.30;99.90;;;;;;5075385;28;20256;-57
2023/03/13 08:58:57;;;;;;;3.03;2.37;;;13.30;99.90;;;;;;5071192;28;20210;-57
2023/03/13 09:01:26;;;;;;;4.87;1.73;;;13.40;99.90;;;;;;5074282;28;20686;-57
2023/03/13 09:03:53;;;;;;;5.80;1.83;;;13.40;99.90;;;;;;5074482;28;20236;-60
2023/03/13 09:06:21;;;;;;;4.20;1.97;;;13.60;99.90;;;;;;5055823;28;20319;-57
2023/03/13 09:08:47;;;;;;;4.23;1.83;;;14.10;99.90;;;;;;5072531;28;20314;-57
2023/03/13 09:11:17;;;;;;;12.73;2.00;;;14.40;99.90;;;;;;5053185;28;20295;-57
2023/03/13 09:13:47;;;;;;;5.73;1.97;;;14.70;99.90;;;;;;5075192;28;20203;-57
2023/03/13 09:16:16;;;;;;;3.47;1.77;;;14.80;99.90;;;;;;5073366;28;20255;-59
2023/03/13 09:18:43;;;;;;;3.13;1.50;;;15.00;99.90;;;;;;5074204;28;20315;-57
2023/03/13 09:21:16;;;;;;;2.40;1.30;;;15.00;99.90;;;;;;5076234;28;20205;-57
2023/03/13 09:23:43;;;;;;;3.83;1.57;;;15.30;99.90;;;;;;5075891;28;20663;-58
2023/03/13 09:26:11;;;;;;;3.70;1.37;;;15.30;99.90;;;;;;5057180;28;20235;-59
2023/03/13 09:28:38;;;;;;;3.77;1.50;;;15.30;99.90;;;;;;5075802;28;20227;-60
2023/03/13 09:31:10;;;;;;;2.93;1.30;;;15.40;99.90;;;;;;5073503;28;20241;-57
2023/03/13 09:33:38;;;;;;;3.13;1.50;;;15.30;99.90;;;;;;5080422;28;20271;-57
2023/03/13 09:36:05;;;;;;;1.87;1.20;;;15.50;99.90;;;;;;5096998;28;20295;-59
2023/03/13 09:38:32;;;;;;;5.73;1.57;;;15.30;99.90;;;;;;5091018;28;20642;-57
2023/03/13 09:41:13;;;;;;;4.30;1.43;;;15.20;99.90;;;;;;5094206;28;20239;-58
2023/03/13 09:43:55;;;;;;;1.40;1.00;;;15.20;99.90;;;;;;5094503;28;20377;-58
2023/03/13 09:46:26;;;;;;;3.17;1.50;;;15.20;99.90;;;;;;5072668;28;20764;-58
2023/03/13 09:49:30;;;;;;;2.13;1.30;;;15.30;99.90;;;;;;5093839;28;20517;-58
2023/03/13 09:52:04;;;;;;;3.63;1.50;;;15.30;99.90;;;;;;5064336;28;20206;-58
2023/03/13 09:54:45;;;;;;;7.67;2.00;;;15.50;99.90;;;;;;5098087;28;20294;-57
2023/03/13 09:57:32;;;;;;;3.17;1.53;;;15.40;99.90;;;;;;5074193;28;20213;-58
2023/03/13 10:00:07;;;;;;;5.40;1.70;;;15.30;99.90;;;;;;5095197;28;20589;-61
2023/03/13 10:02:35;;;;;;;4.93;1.70;;;15.30;99.90;;;;;;5096264;28;20294;-57
2023/03/13 10:05:05;;;;;;;3.43;1.87;;;15.30;99.90;;;;;;5098945;28;20301;-57
2023/03/13 10:07:32;;;;;;;4.50;1.90;;;15.20;99.90;;;;;;5099986;28;20206;-57
2023/03/13 10:10:03;;;;;;;2.03;1.20;;;15.20;99.90;;;;;;5090856;28;20285;-57
2023/03/13 10:12:42;;;;;;;3.63;1.50;;;15.20;99.90;;;;;;5076719;28;20209;-62
2023/03/13 10:15:37;;;;;;;2.40;1.30;;;15.30;99.90;;;;;;5097328;27;20284;-60
2023/03/13 10:18:14;;;;;;;2.77;1.20;;;15.30;99.90;;;;;;5096750;28;20647;-61
2023/03/13 10:20:44;;;;;;;3.83;1.47;;;15.40;99.90;;;;;;5092498;28;20322;-60
2023/03/13 10:23:20;;;;;;;8.67;3.33;;;15.30;99.90;;;;;;5093658;28;20356;-60
2023/03/13 10:25:47;;;;;;;4.43;1.20;;;15.30;99.90;;;;;;5095174;28;20308;-60
2023/03/13 10:28:19;;;;;;;1.97;1.20;;;15.40;99.90;;;;;;5097407;28;20201;-61
2023/03/13 10:30:57;;;;;;;2.57;1.03;;;15.50;99.90;;;;;;5094823;28;21121;-61
2023/03/13 10:33:27;;;;;;;2.60;1.30;;;15.60;99.90;;;;;;5095261;28;20266;-60
2023/03/13 10:36:03;;;;;;;3.00;1.20;;;15.70;99.90;;;;;;5097490;28;20254;-60
2023/03/13 10:38:34;;;;;;;3.00;1.40;;;15.60;99.90;;;;;;5097050;28;20987;-62
2023/03/13 10:41:16;;;;;;;3.40;1.20;;;15.60;99.90;;;;;;5088011;28;20213;-60
2023/03/13 10:43:52;;;;;;;3.47;1.10;;;15.80;99.90;;;;;;5100119;28;20209;-63
2023/03/13 10:46:30;;;;;;;1.37;0.80;;;15.90;99.90;;;;;;5096210;28;20268;-63
2023/03/13 10:49:01;;;;;;;1.67;1.00;;;15.90;99.90;;;;;;5079643;28;20204;-60
2023/03/13 10:51:38;;;;;;;1.67;1.30;;;15.90;99.90;;;;;;5100169;28;20626;-61
2023/03/13 10:54:22;;;;;;;2.77;1.10;;;15.80;99.90;;;;;;5081040;28;20551;-60
2023/03/13 10:56:51;;;;;;;1.50;1.40;;;15.80;99.90;;;;;;5099297;27;20304;-60
2023/03/13 10:59:23;;;;;;;1.00;0.70;;;15.80;99.90;;;;;;5098411;28;20214;-60
2023/03/13 11:01:52;;;;;;;3.50;1.17;;;15.80;99.90;;;;;;5092369;28;20247;-60
2023/03/13 11:04:31;;;;;;;3.60;1.10;;;15.90;99.90;;;;;;5096588;28;20226;-60
2023/03/13 11:07:10;;;;;;;3.27;0.90;;;16.30;99.90;;;;;;5099002;27;20200;-63
2023/03/13 11:09:37;;;;;;;3.13;1.17;;;16.20;99.90;;;;;;5098894;28;20234;-63
2023/03/13 11:12:17;;;;;;;3.20;1.00;;;16.40;99.90;;;;;;5094452;28;20297;-60
2023/03/13 11:14:44;;;;;;;1.63;0.90;;;16.70;99.90;;;;;;5096085;28;20211;-63
2023/03/13 11:17:28;;;;;;;1.53;0.97;;;16.70;99.90;;;;;;5095468;28;20198;-60
2023/03/13 11:20:16;;;;;;;1.73;0.90;;;16.60;99.90;;;;;;5097218;28;20248;-60
2023/03/13 11:22:55;;;;;;;2.17;1.10;;;16.30;99.90;;;;;;5095782;28;20212;-61
2023/03/13 11:25:46;;;;;;;3.00;1.20;;;16.60;99.90;;;;;;5094231;28;20221;-61
2023/03/13 11:28:24;;;;;;;1.40;1.20;;;16.90;99.90;;;;;;5093340;28;20306;-61
2023/03/13 11:31:11;;;;;;;3.70;0.93;;;16.60;99.90;;;;;;5087673;28;20337;-61
2023/03/13 11:34:17;;;;;;;3.83;1.20;;;16.90;99.90;;;;;;5092696;27;20215;-61
2023/03/13 11:36:51;;;;;;;2.27;1.00;;;17.00;99.90;;;;;;5063026;28;20202;-60
2023/03/13 11:39:36;;;;;;;4.17;0.93;;;16.80;99.90;;;;;;5076861;28;20195;-61
2023/03/13 11:42:37;;;;;;;4.97;1.03;;;17.20;99.90;;;;;;5069807;28;20237;-60
2023/03/13 11:45:22;;;;;;;2.33;0.80;;;17.30;99.90;;;;;;5075030;28;20259;-60
2023/03/13 11:48:07;;;;;;;1.40;0.60;;;17.50;99.90;;;;;;5074117;28;20590;-60
2023/03/13 11:50:43;;;;;;;1.97;0.80;;;17.70;99.90;;;;;;5077615;28;20222;-60
2023/03/13 11:53:28;;;;;;;4.87;1.27;;;17.60;99.90;;;;;;5078034;28;20618;-61
2023/03/13 11:56:13;;;;;;;3.77;1.00;;;17.70;99.90;;;;;;5076785;28;20547;-60
2023/03/13 11:58:52;;;;;;;1.90;0.90;;;17.90;99.90;;;;;;5076334;28;20233;-60
2023/03/13 12:01:23;;;;;;;2.07;0.83;;;17.90;99.90;;;;;;5073062;28;20685;-60
2023/03/13 12:03:59;;;;;;;3.53;0.83;;;17.80;99.90;;;;;;5075360;28;20204;-63
2023/03/13 12:06:33;;;;;;;2.93;0.77;;;17.70;99.90;;;;;;5072314;28;20563;-61
2023/03/13 12:09:12;;;;;;;2.43;1.03;;;17.50;99.90;;;;;;5069807;28;20206;-60
2023/03/13 12:11:46;;;;;;;1.53;1.03;;;17.50;99.90;;;;;;5050882;28;20552;-60
2023/03/13 12:14:40;;;;;;;1.80;1.10;;;17.90;99.90;;;;;;5070537;28;20202;-62
2023/03/13 12:17:36;;;;;;;3.17;1.27;;;18.00;99.90;;;;;;5077628;28;20275;-61
2023/03/13 12:20:37;;;;;;;6.67;1.20;;;18.10;99.90;;;;;;5072876;28;20212;-61
2023/03/13 12:23:17;;;;;;;1.73;0.90;;;18.00;99.90;;;;;;5076062;28;20774;-61
2023/03/13 12:26:03;;;;;;;4.53;1.00;;;18.00;99.90;;;;;;5066989;28;20212;-61
2023/03/13 12:28:57;;;;;;;2.83;1.00;;;18.00;99.90;;;;;;5074988;28;20213;-61
2023/03/13 12:31:29;;;;;;;3.40;1.07;;;17.70;99.90;;;;;;5075863;28;20559;-61
2023/03/13 12:34:14;;;;;;;1.10;0.70;;;17.80;99.90;;;;;;5073749;28;20326;-61
2023/03/13 12:36:52;;;;;;;1.90;0.90;;;17.30;99.90;;;;;;5096487;28;20216;-60
2023/03/13 12:39:54;;;;;;;3.33;0.97;;;17.00;99.90;;;;;;5095928;28;20561;-61
2023/03/13 12:42:40;;;;;;;2.10;0.80;;;16.90;99.90;;;;;;5095174;28;20276;-62
2023/03/13 12:45:13;;;;;;;1.03;0.77;;;16.80;99.90;;;;;;5096283;28;20626;-61
2023/03/13 12:47:58;;;;;;;3.90;0.93;;;16.80;99.90;;;;;;5096945;28;20202;-61
2023/03/13 12:50:53;;;;;;;3.67;1.17;;;17.10;99.90;;;;;;5095048;28;20682;-61
2023/03/13 12:53:29;;;;;;;2.40;1.00;;;17.00;99.90;;;;;;5095045;28;20282;-61
2023/03/13 12:56:14;;;;;;;4.63;0.93;;;17.20;99.90;;;;;;5097702;28;20808;-60
2023/03/13 12:58:48;;;;;;;2.97;1.00;;;17.30;99.90;;;;;;5096348;28;20252;-61
2023/03/13 13:01:40;;;;;;;1.10;0.50;;;17.40;99.90;;;;;;5097367;28;20290;-61
2023/03/13 13:04:40;;;;;;;6.13;1.33;;;17.70;99.90;;;;;;5087627;28;20682;-61
2023/03/13 13:07:27;;;;;;;3.97;1.33;;;17.60;99.90;;;;;;5097449;28;20197;-61
2023/03/13 13:10:09;;;;;;;1.70;0.57;;;17.50;99.90;;;;;;5098681;28;20206;-61